Time;durP1;ratioP1;P1;durP2;ratioP2;P2;SDS_P1;SDS_P2;PMS_P1;PMS_P2;Temp;Humidity;BMP_temperature;BMP_pressure;BME280_temperature;BME280_humidity;BME280_pressure;Samples;Min_cycle;Max_cycle;Signal;HPM_P1;HPM_P2
2022/06/30 00:02:07;;;;;;;;;21.00;21.00;;;;;29.22;54.21;98479.09;6262098;27;96881;-70
2022/06/30 00:05:12;;;;;;;;;24.00;21.20;;;;;29.18;53.83;98492.06;6263720;27;97412;-70
2022/06/30 00:08:15;;;;;;;;;24.40;23.00;;;;;29.19;53.70;98485.38;6247737;27;97440;-71
2022/06/30 00:11:18;;;;;;;;;22.40;21.40;;;;;29.16;53.88;98488.88;6262167;27;97455;-70
2022/06/30 00:14:22;;;;;;;;;24.25;22.25;;;;;29.13;53.98;98492.34;6244686;27;97247;-71
2022/06/30 00:17:26;;;;;;;;;25.00;22.75;;;;;29.15;54.15;98492.81;6251062;27;96569;-71
2022/06/30 00:20:31;;;;;;;;;24.20;22.20;;;;;29.18;53.65;98494.84;6250450;27;97519;-71
2022/06/30 00:23:35;;;;;;;;;25.00;22.20;;;;;29.21;53.77;98499.72;6262598;27;97456;-71
2022/06/30 00:26:39;;;;;;;;;26.00;25.00;;;;;29.26;53.53;98490.31;6261050;27;97012;-71
2022/06/30 00:29:42;;;;;;;;;26.00;24.20;;;;;29.29;53.51;98504.31;6258501;27;96632;-71
2022/06/30 00:32:46;;;;;;;;;27.00;23.00;;;;;29.32;53.67;98494.50;6261657;27;96857;-70
2022/06/30 00:35:51;;;;;;;;;25.00;22.00;;;;;29.32;53.57;98502.03;6261677;27;97471;-71
2022/06/30 00:38:55;;;;;;;;;25.00;23.00;;;;;29.33;53.79;98498.06;6243864;27;96652;-72
2022/06/30 00:41:58;;;;;;;;;22.25;21.25;;;;;29.34;53.36;98502.47;6225789;27;99183;-70
2022/06/30 00:45:02;;;;;;;;;25.25;23.25;;;;;29.34;53.62;98494.94;6252469;27;97506;-70
2022/06/30 00:48:06;;;;;;;;;23.00;23.00;;;;;29.33;53.91;98498.06;6262667;27;97330;-71
2022/06/30 00:51:11;;;;;;;;;27.40;26.80;;;;;29.33;53.32;98496.09;6263051;27;97465;-72
2022/06/30 00:54:14;;;;;;;;;23.40;22.00;;;;;29.33;53.33;98495.28;6262528;27;97048;-71
2022/06/30 00:57:19;;;;;;;;;26.00;23.00;;;;;29.36;53.46;98500.16;6259416;27;97494;-69
2022/06/30 01:00:25;;;;;;;;;25.20;24.20;;;;;29.31;53.77;98500.41;6244591;27;97096;-70
2022/06/30 01:03:29;;;;;;;;;27.00;25.00;;;;;29.19;54.48;98495.66;6262550;27;96863;-71
2022/06/30 01:06:36;;;;;;;;;26.00;24.60;;;;;29.10;54.44;98489.47;6246957;27;97426;-70
2022/06/30 01:13:00;;;;;;;;;26.60;24.00;;;;;28.99;55.41;98493.88;6263143;27;97501;-71
2022/06/30 01:16:04;;;;;;;;;25.00;23.00;;;;;28.96;55.50;98486.28;6242910;27;97219;-70
2022/06/30 01:19:20;;;;;;;;;26.00;22.80;;;;;28.96;55.32;98491.84;6261226;27;96751;-71
2022/06/30 01:22:47;;;;;;;;;24.00;23.00;;;;;28.97;54.64;98493.44;6258025;27;97442;-70
2022/06/30 01:25:51;;;;;;;;;25.20;22.60;;;;;28.97;54.23;98485.13;6254329;27;99541;-70
2022/06/30 01:28:56;;;;;;;;;26.75;25.00;;;;;28.61;54.67;98431.34;6261643;27;96659;-70
2022/06/30 01:32:02;;;;;;;;;24.60;22.60;;;;;29.03;54.07;98484.50;6260865;27;98252;-70
2022/06/30 01:35:07;;;;;;;;;25.00;23.00;;;;;29.03;54.41;98492.06;6262357;27;97488;-71
2022/06/30 01:38:12;;;;;;;;;25.40;23.00;;;;;29.05;54.20;98481.38;6256533;27;97274;-70
2022/06/30 01:41:16;;;;;;;;;25.00;24.60;;;;;29.08;54.24;98478.69;6259202;27;97249;-71
2022/06/30 01:44:20;;;;;;;;;27.00;25.67;;;;;29.08;53.79;98475.13;6220037;27;98245;-71
2022/06/30 01:47:25;;;;;;;;;27.00;24.20;;;;;29.01;53.63;98470.19;6242212;27;99021;-71
2022/06/30 01:50:30;;;;;;;;;25.60;24.00;;;;;29.00;53.85;98465.78;6260702;27;97509;-71
2022/06/30 01:53:35;;;;;;;;;25.60;21.60;;;;;28.85;54.05;98463.75;6227058;27;96733;-70
2022/06/30 01:56:39;;;;;;;;;26.00;23.00;;;;;28.82;54.36;98473.63;6240190;27;98181;-70
2022/06/30 01:59:43;;;;;;;;;27.40;26.00;;;;;28.77;54.39;98471.09;6243578;27;97427;-71
2022/06/30 02:02:48;;;;;;;;;25.20;24.00;;;;;28.71;54.30;98471.66;6240720;27;98516;-71
2022/06/30 02:05:51;;;;;;;;;24.00;22.00;;;;;28.64;54.34;98475.00;6261744;27;96850;-70
2022/06/30 02:08:56;;;;;;;;;23.20;22.00;;;;;28.59;54.52;98480.00;6261558;27;97034;-70
2022/06/30 02:15:22;;;;;;;;;23.80;22.80;;;;;28.54;54.39;98472.72;6241643;27;97755;-70
2022/06/30 02:18:25;;;;;;;;;26.00;23.40;;;;;28.52;54.69;98472.28;6259537;27;97427;-71
2022/06/30 02:21:29;;;;;;;;;25.20;23.20;;;;;28.47;55.04;98466.97;6222146;27;97023;-70
2022/06/30 02:24:34;;;;;;;;;26.40;24.40;;;;;28.49;54.47;98472.16;6242177;27;96976;-72
2022/06/30 02:27:37;;;;;;;;;26.80;22.80;;;;;28.18;54.73;98434.78;6259190;27;97494;-71
2022/06/30 02:30:40;;;;;;;;;26.60;25.00;;;;;28.37;55.12;98471.03;6260000;27;97126;-70
2022/06/30 02:33:44;;;;;;;;;26.00;24.00;;;;;28.30;55.17;98470.78;6261240;27;97516;-72
2022/06/30 02:36:47;;;;;;;;;25.33;24.33;;;;;28.29;55.51;98463.66;6247915;27;97431;-71
2022/06/30 02:39:52;;;;;;;;;25.80;23.80;;;;;28.27;55.37;98460.41;6246509;27;96691;-71
2022/06/30 02:42:55;;;;;;;;;25.00;23.20;;;;;28.29;55.57;98462.84;6229377;27;98938;-71
2022/06/30 02:45:59;;;;;;;;;22.50;20.50;;;;;28.26;55.50;98466.28;6245461;27;98769;-70
2022/06/30 02:49:02;;;;;;;;;28.40;25.40;;;;;28.20;55.80;98476.00;6246529;27;97743;-70
2022/06/30 02:52:07;;;;;;;;;26.00;23.40;;;;;28.19;55.84;98477.97;6246363;27;99407;-70
2022/06/30 02:55:12;;;;;;;;;24.40;22.00;;;;;28.19;55.76;98475.22;6244643;27;97536;-71
2022/06/30 02:58:17;;;;;;;;;25.00;24.00;;;;;28.16;56.33;98470.34;6241955;27;97416;-71
2022/06/30 03:01:21;;;;;;;;;26.00;24.00;;;;;28.12;56.32;98474.16;6261872;27;97371;-71
2022/06/30 03:04:24;;;;;;;;;24.00;23.40;;;;;28.04;57.14;98475.88;6244933;27;97881;-71
2022/06/30 03:07:28;;;;;;;;;26.25;25.00;;;;;28.00;57.38;98472.19;6264617;27;97457;-71
2022/06/30 03:10:33;;;;;;;;;30.40;26.40;;;;;27.97;57.21;98472.84;6244534;27;97377;-71
2022/06/30 03:13:36;;;;;;;;;29.00;25.25;;;;;27.98;57.74;98477.25;6265137;27;97738;-71
2022/06/30 03:16:39;;;;;;;;;27.20;23.60;;;;;27.96;57.67;98482.31;6263874;27;97403;-70
2022/06/30 03:19:43;;;;;;;;;30.40;27.40;;;;;27.91;57.48;98483.34;6263998;27;97470;-70
2022/06/30 03:22:46;;;;;;;;;27.00;23.80;;;;;28.00;57.13;98475.72;6246459;27;99393;-71
2022/06/30 03:25:51;;;;;;;;;24.00;22.80;;;;;28.04;57.16;98475.06;6226990;27;98447;-71
2022/06/30 03:28:54;;;;;;;;;24.67;22.67;;;;;28.04;57.17;98473.09;6264812;27;97465;-71
2022/06/30 03:31:58;;;;;;;;;26.00;24.00;;;;;28.03;57.64;98471.47;6225804;27;97950;-71
2022/06/30 03:35:01;;;;;;;;;25.00;24.00;;;;;28.09;57.42;98474.81;6263104;27;96779;-71
2022/06/30 03:38:06;;;;;;;;;28.40;25.80;;;;;28.08;57.34;98470.44;6265615;27;96423;-70
2022/06/30 03:41:11;;;;;;;;;26.00;24.00;;;;;28.13;57.35;98475.78;6262828;27;97545;-71
2022/06/30 03:44:14;;;;;;;;;26.75;24.50;;;;;28.14;56.93;98477.41;6260684;27;97405;-72
2022/06/30 03:47:17;;;;;;;;;29.00;26.40;;;;;28.11;57.07;98478.88;6253270;27;98068;-72
2022/06/30 03:50:21;;;;;;;;;28.60;25.00;;;;;28.02;57.25;98453.22;6242733;27;97482;-70
2022/06/30 03:53:25;;;;;;;;;26.20;24.20;;;;;28.20;57.07;98479.56;6259438;27;96716;-70
2022/06/30 03:56:29;;;;;;;;;29.00;26.60;;;;;28.25;56.63;98490.44;6240580;27;96722;-71
2022/06/30 03:59:32;;;;;;;;;26.75;25.00;;;;;28.35;56.48;98483.59;6262683;27;97419;-70
2022/06/30 04:02:36;;;;;;;;;29.00;25.40;;;;;28.33;56.62;98472.88;6261654;27;97572;-71
2022/06/30 04:05:40;;;;;;;;;24.50;22.50;;;;;28.42;55.78;98490.19;6242714;27;97461;-72
2022/06/30 04:08:44;;;;;;;;;24.00;22.60;;;;;28.47;55.90;98494.69;6245797;27;98005;-70
2022/06/30 04:11:48;;;;;;;;;27.00;25.00;;;;;28.55;55.99;98493.75;6262468;27;98256;-70
2022/06/30 04:14:52;;;;;;;;;27.00;25.00;;;;;28.64;55.82;98488.06;6232863;27;97313;-71
2022/06/30 04:17:55;;;;;;;;;26.60;26.00;;;;;28.75;55.37;98500.31;6260379;27;97466;-71
2022/06/30 04:20:59;;;;;;;;;24.50;23.50;;;;;28.85;55.19;98499.84;6262315;27;96626;-70
2022/06/30 04:24:02;;;;;;;;;26.20;24.80;;;;;28.93;54.80;98507.19;6243212;27;96764;-70
2022/06/30 04:27:07;;;;;;;;;25.00;24.00;;;;;29.04;54.66;98486.13;6225438;27;98044;-70
2022/06/30 04:30:12;;;;;;;;;27.00;26.00;;;;;29.14;54.49;98491.19;6257398;27;97570;-71
2022/06/30 04:33:16;;;;;;;;;27.50;25.00;;;;;29.23;53.95;98502.13;6261563;27;96684;-70
2022/06/30 04:36:19;;;;;;;;;28.00;25.00;;;;;29.33;54.42;98498.88;6244144;27;97502;-72
2022/06/30 04:39:23;;;;;;;;;27.00;24.00;;;;;29.44;53.64;98496.38;6242548;27;97280;-71
2022/06/30 04:42:26;;;;;;;;;29.25;26.25;;;;;29.55;53.47;98492.75;6242793;27;97489;-72
2022/06/30 04:45:29;;;;;;;;;26.75;25.00;;;;;29.66;53.52;98493.81;6242727;27;97426;-71
2022/06/30 04:48:39;;;;;;;;;28.50;25.50;;;;;29.78;52.92;98504.06;6252154;27;96993;-70
2022/06/30 04:51:42;;;;;;;;;29.00;26.20;;;;;29.88;53.05;98499.94;6238227;27;97576;-70
2022/06/30 04:54:46;;;;;;;;;28.60;25.00;;;;;29.92;52.64;98510.00;6260734;27;98233;-70
2022/06/30 04:57:51;;;;;;;;;27.00;26.40;;;;;30.01;52.87;98515.38;6261216;27;97454;-70
2022/06/30 05:00:54;;;;;;;;;30.60;28.60;;;;;30.08;52.55;98518.34;6243642;27;98048;-70
2022/06/30 05:03:58;;;;;;;;;30.00;27.00;;;;;30.15;52.85;98512.19;6259814;27;98052;-73
2022/06/30 05:07:01;;;;;;;;;28.60;27.00;;;;;30.13;52.84;98509.75;6262143;27;97564;-70
2022/06/30 05:10:06;;;;;;;;;32.50;28.50;;;;;30.18;52.41;98508.66;6257993;27;97489;-71
2022/06/30 05:13:11;;;;;;;;;31.00;26.80;;;;;30.16;52.22;98511.78;6258067;27;98238;-71
2022/06/30 05:16:14;;;;;;;;;31.80;28.80;;;;;30.21;52.45;98511.53;6252383;27;97471;-71
2022/06/30 05:19:18;;;;;;;;;31.00;27.40;;;;;30.20;52.42;98523.84;6262285;27;96568;-71
2022/06/30 05:22:21;;;;;;;;;27.75;25.50;;;;;30.29;51.84;98530.00;6243407;27;98724;-71
2022/06/30 05:28:47;;;;;;;;;26.80;24.20;;;;;30.54;50.95;98517.50;6243700;27;97440;-70
2022/06/30 05:31:56;;;;;;;;;29.00;25.00;;;;;30.66;49.94;98508.25;6241252;27;98130;-70
2022/06/30 05:34:59;;;;;;;;;22.50;21.50;;;;;30.74;49.50;98509.22;6242439;27;96818;-71
2022/06/30 05:38:03;;;;;;;;;28.00;23.00;;;;;30.74;49.90;98509.22;6262223;27;97386;-72
2022/06/30 05:41:06;;;;;;;;;24.00;23.00;;;;;30.83;49.05;98512.59;6242132;27;96965;-70
2022/06/30 05:44:11;;;;;;;;;20.60;20.00;;;;;30.91;48.46;98512.38;6232049;27;97482;-71
2022/06/30 05:47:14;;;;;;;;;22.00;21.00;;;;;30.98;48.91;98511.75;6243106;27;96722;-71
2022/06/30 05:50:18;;;;;;;;;19.00;18.00;;;;;31.04;48.39;98512.28;6253176;27;97431;-71
2022/06/30 05:53:22;;;;;;;;;22.00;21.00;;;;;31.11;48.59;98509.66;6261848;27;97489;-71
2022/06/30 05:56:25;;;;;;;;;23.75;22.50;;;;;31.15;48.14;98513.31;6242386;27;99421;-71
2022/06/30 05:59:30;;;;;;;;;21.80;19.80;;;;;31.23;48.56;98515.06;6259945;27;97462;-71
2022/06/30 06:02:34;;;;;;;;;23.00;22.00;;;;;31.21;48.94;98512.66;6248823;27;97261;-71
2022/06/30 06:05:37;;;;;;;;;22.40;20.40;;;;;31.28;48.60;98518.34;6259372;27;97521;-71
2022/06/30 06:08:41;;;;;;;;;21.40;21.00;;;;;31.20;48.26;98510.22;6258332;27;96719;-70
2022/06/30 06:11:45;;;;;;;;;23.00;21.60;;;;;31.42;48.77;98523.44;6228123;27;96790;-70
2022/06/30 06:14:50;;;;;;;;;23.00;22.00;;;;;31.56;48.16;98512.59;6263049;27;97402;-71
2022/06/30 06:17:53;;;;;;;;;23.00;21.00;;;;;31.76;47.76;98516.13;6245024;27;97813;-71
2022/06/30 06:20:56;;;;;;;;;23.00;21.00;;;;;31.82;46.66;98518.22;6265830;27;96585;-71
2022/06/30 06:24:20;;;;;;;;;22.40;21.00;;;;;31.92;46.14;98522.38;6265138;27;97561;-70
2022/06/30 06:27:24;;;;;;;;;23.00;21.00;;;;;31.96;46.49;98526.03;6264306;27;97434;-71
2022/06/30 06:30:28;;;;;;;;;24.00;22.00;;;;;32.00;46.55;98523.31;6247049;27;96706;-70
2022/06/30 06:33:32;;;;;;;;;23.60;22.00;;;;;32.09;46.42;98529.44;6265533;27;96525;-71
2022/06/30 06:36:35;;;;;;;;;21.00;21.00;;;;;32.30;46.60;98524.25;6246728;27;99471;-71
2022/06/30 06:39:39;;;;;;;;;24.00;22.25;;;;;32.50;45.85;98527.78;6245909;27;97925;-71
2022/06/30 06:42:42;;;;;;;;;22.00;22.00;;;;;32.63;44.68;98523.56;6245029;27;97441;-70
2022/06/30 06:45:47;;;;;;;;;23.50;20.00;;;;;32.64;43.92;98528.81;6245402;27;96836;-70
2022/06/30 06:48:51;;;;;;;;;20.60;20.00;;;;;32.74;43.72;98526.56;6228711;27;96716;-71
2022/06/30 06:51:55;;;;;;;;;21.40;21.00;;;;;32.99;44.18;98538.84;6246237;27;97944;-71
2022/06/30 06:54:58;;;;;;;;;22.40;20.40;;;;;33.24;43.47;98536.41;6264526;27;96906;-71
2022/06/30 06:58:01;;;;;;;;;22.00;21.00;;;;;33.32;42.57;98529.75;6247027;27;97488;-71
2022/06/30 07:01:06;;;;;;;;;20.60;18.60;;;;;33.47;42.21;98535.13;6265143;27;97489;-71
2022/06/30 07:04:10;;;;;;;;;21.00;21.00;;;;;33.70;42.52;98539.78;6263966;27;96374;-71
2022/06/30 07:07:13;;;;;;;;;19.00;18.00;;;;;33.89;41.05;98537.59;6246441;27;96756;-72
2022/06/30 07:10:17;;;;;;;;;18.00;17.80;;;;;34.04;40.75;98541.31;6263050;27;97483;-71
2022/06/30 07:13:21;;;;;;;;;22.00;20.00;;;;;34.07;41.22;98537.75;6260055;27;97340;-71
2022/06/30 07:16:26;;;;;;;;;24.25;20.00;;;;;34.24;40.48;98525.94;6244606;27;98631;-70
2022/06/30 07:19:29;;;;;;;;;20.00;18.00;;;;;34.47;41.59;98534.13;6244167;27;98576;-71
2022/06/30 07:22:32;;;;;;;;;18.20;18.00;;;;;34.64;39.61;98543.84;6244497;27;97501;-71
2022/06/30 07:25:36;;;;;;;;;22.00;19.60;;;;;34.73;39.86;98541.53;6245014;27;97758;-71
2022/06/30 07:28:42;;;;;;;;;19.60;19.60;;;;;34.87;38.48;98547.22;6262749;27;97417;-71
2022/06/30 07:32:05;;;;;;;;;17.50;17.00;;;;;34.89;38.61;98544.84;6243991;27;97118;-71
2022/06/30 07:35:08;;;;;;;;;20.50;19.25;;;;;34.86;38.08;98544.78;6263654;27;97485;-71
2022/06/30 07:38:13;;;;;;;;;21.40;19.40;;;;;35.05;38.52;98536.91;6259243;27;97955;-71
2022/06/30 07:41:16;;;;;;;;;21.40;20.80;;;;;35.33;38.45;98541.88;6240488;27;97777;-71
2022/06/30 07:44:20;;;;;;;;;19.00;17.60;;;;;35.55;37.83;98528.72;6263782;27;97505;-70
2022/06/30 07:47:25;;;;;;;;;19.00;19.00;;;;;35.83;37.08;98540.03;6244213;27;97349;-71
2022/06/30 07:50:29;;;;;;;;;21.00;19.00;;;;;36.00;36.33;98533.66;6262985;27;96646;-71
2022/06/30 07:53:51;;;;;;;;;20.00;18.00;;;;;36.22;36.24;98534.50;6264349;27;97499;-71
2022/06/30 07:57:15;;;;;;;;;21.40;19.40;;;;;36.43;34.47;98526.06;6229313;27;97801;-72
2022/06/30 08:00:35;;;;;;;;;19.00;18.75;;;;;36.59;34.53;98536.91;6227893;27;97889;-71
2022/06/30 08:03:52;;;;;;;;;20.00;18.00;;;;;36.76;33.53;98533.28;6263575;27;97473;-71
2022/06/30 08:07:01;;;;;;;;;16.00;16.00;;;;;36.81;34.23;98527.25;6240320;27;97488;-71
2022/06/30 08:10:06;;;;;;;;;19.00;18.00;;;;;36.77;33.08;98532.06;6262946;27;97456;-72
2022/06/30 08:13:10;;;;;;;;;21.00;19.00;;;;;36.72;34.41;98538.09;6260454;27;96368;-71
2022/06/30 08:16:14;;;;;;;;;17.75;17.00;;;;;36.71;33.45;98530.88;6262758;27;97483;-71
2022/06/30 08:19:21;;;;;;;;;18.00;17.33;;;;;36.86;33.47;98535.25;6244716;27;99514;-71
2022/06/30 08:22:26;;;;;;;;;18.40;18.00;;;;;37.16;32.97;98522.75;6245761;27;96700;-71
2022/06/30 08:25:29;;;;;;;;;19.00;19.00;;;;;37.52;33.68;98517.78;6263237;27;97568;-71
2022/06/30 08:28:33;;;;;;;;;18.75;18.75;;;;;37.73;31.87;98517.66;6243903;27;97464;-72
2022/06/30 08:31:36;;;;;;;;;21.00;19.40;;;;;37.98;32.75;98528.75;6243355;27;98613;-72
2022/06/30 08:34:43;;;;;;;;;21.60;19.60;;;;;38.23;31.86;98529.38;6262740;27;97005;-72
2022/06/30 08:37:47;;;;;;;;;21.80;20.40;;;;;38.52;32.07;98525.13;6263139;27;97104;-72
2022/06/30 08:44:12;;;;;;;;;25.00;23.00;;;;;39.04;31.24;98529.88;6244072;27;96630;-72
2022/06/30 08:47:15;;;;;;;;;25.00;23.00;;;;;39.23;30.73;98527.22;6260314;27;97517;-71
2022/06/30 08:50:20;;;;;;;;;21.00;20.40;;;;;39.29;30.45;98521.91;6261067;27;97690;-71
2022/06/30 08:53:25;;;;;;;;;22.60;22.00;;;;;39.45;30.71;98526.94;6244078;27;100261;-71
2022/06/30 08:56:30;;;;;;;;;22.60;21.60;;;;;39.63;30.13;98533.19;6258746;27;97047;-71
2022/06/30 08:59:36;;;;;;;;;22.25;21.25;;;;;39.86;30.09;98524.78;6243478;27;96817;-71
2022/06/30 09:02:39;;;;;;;;;22.00;20.00;;;;;40.03;28.84;98523.72;6260598;27;97423;-71
2022/06/30 09:05:47;;;;;;;;;23.00;22.00;;;;;39.91;29.01;98529.97;6258520;27;97422;-71
2022/06/30 09:08:51;;;;;;;;;22.40;21.00;;;;;40.04;29.08;98528.13;6260934;27;96695;-72
2022/06/30 09:11:56;;;;;;;;;22.00;22.00;;;;;40.15;28.97;98523.13;6243687;27;97540;-72
2022/06/30 09:14:59;;;;;;;;;22.80;21.20;;;;;40.01;28.88;98514.88;6227825;27;97500;-72
2022/06/30 09:18:04;;;;;;;;;22.50;21.00;;;;;39.77;28.25;98513.25;6260057;27;96845;-71
2022/06/30 09:21:17;;;;;;;;;23.00;21.00;;;;;39.93;28.35;98515.44;6236851;27;97417;-72
2022/06/30 09:24:23;;;;;;;;;25.00;24.00;;;;;40.17;28.69;98515.00;6255842;27;96738;-71
2022/06/30 09:27:32;;;;;;;;;24.25;22.25;;;;;40.47;28.56;98524.63;6244244;27;97498;-71
2022/06/30 09:30:35;;;;;;;;;25.80;23.80;;;;;40.77;28.16;98518.06;6243638;27;97750;-71
2022/06/30 09:33:40;;;;;;;;;27.40;26.00;;;;;41.01;28.00;98513.94;6243866;27;97345;-72
2022/06/30 09:36:48;;;;;;;;;29.60;27.60;;;;;41.28;28.22;98508.97;6262284;27;97576;-73
2022/06/30 09:39:54;;;;;;;;;27.40;26.00;;;;;41.55;27.33;98502.34;6259715;27;96912;-73
2022/06/30 09:42:57;;;;;;;;;31.60;28.40;;;;;41.67;27.01;98501.69;6262429;27;97499;-73
2022/06/30 09:46:00;;;;;;;;;28.40;27.00;;;;;41.47;27.20;98496.06;6261419;27;97470;-72
2022/06/30 09:49:04;;;;;;;;;29.00;27.00;;;;;41.52;27.24;98492.72;6242683;27;99541;-74
2022/06/30 09:52:18;;;;;;;;;29.60;27.00;;;;;41.45;26.80;98490.03;6243378;27;96996;-72
2022/06/30 09:55:21;;;;;;;;;32.60;30.00;;;;;41.62;27.72;98493.72;6261725;27;96590;-73
2022/06/30 09:58:41;;;;;;;;;29.00;26.25;;;;;41.81;26.74;98488.00;6243447;27;96564;-73
2022/06/30 10:01:56;;;;;;;;;29.60;25.80;;;;;41.98;26.48;98488.03;6244835;27;97401;-72
2022/06/30 10:05:02;;;;;;;;;26.20;23.20;;;;;42.12;25.74;98479.19;6244161;27;97655;-72
2022/06/30 10:08:07;;;;;;;;;25.67;24.00;;;;;42.25;26.28;98480.06;6261868;27;97223;-72
2022/06/30 10:11:12;;;;;;;;;22.40;22.00;;;;;42.36;25.30;98472.13;6260788;27;98483;-72
2022/06/30 10:14:17;;;;;;;;;21.40;19.40;;;;;42.34;24.35;98464.03;6241610;27;96814;-72
2022/06/30 10:17:23;;;;;;;;;22.00;19.60;;;;;42.09;24.97;98472.34;6242050;27;98588;-72
2022/06/30 10:20:28;;;;;;;;;21.80;21.00;;;;;41.80;25.32;98475.06;6260269;27;97460;-73
2022/06/30 10:23:34;;;;;;;;;19.40;18.00;;;;;41.71;24.98;98469.22;6257221;27;98026;-72
2022/06/30 10:30:03;;;;;;;;;17.00;16.00;;;;;41.85;23.93;98471.72;6253246;27;97575;-71
2022/06/30 10:33:11;;;;;;;;;17.00;17.00;;;;;42.07;24.27;98468.38;6261699;27;96488;-71
2022/06/30 10:36:25;;;;;;;;;16.80;16.00;;;;;42.00;22.46;98457.22;6258952;27;97632;-73
2022/06/30 10:39:39;;;;;;;;;16.40;16.00;;;;;41.96;22.88;98462.19;6260778;27;96608;-71
2022/06/30 10:42:45;;;;;;;;;15.00;14.00;;;;;41.91;23.06;98467.16;6261697;27;96551;-71
2022/06/30 10:45:56;;;;;;;;;15.40;14.00;;;;;41.83;21.99;98459.25;6261253;27;96374;-72
2022/06/30 10:49:00;;;;;;;;;15.00;14.00;;;;;42.07;23.58;98462.72;6261101;27;96578;-72
2022/06/30 10:52:19;;;;;;;;;14.00;12.75;;;;;42.38;21.39;98460.31;6258702;27;97561;-72
2022/06/30 10:55:24;;;;;;;;;13.00;12.00;;;;;42.66;21.62;98460.38;6262603;27;96532;-71
2022/06/30 10:58:27;;;;;;;;;14.00;12.60;;;;;42.70;20.48;98451.78;6265588;27;97474;-72
2022/06/30 11:01:31;;;;;;;;;14.40;13.40;;;;;42.82;21.42;98459.53;6229184;27;97289;-71
2022/06/30 11:04:34;;;;;;;;;14.00;13.00;;;;;42.94;21.09;98444.59;6228343;27;98466;-71
2022/06/30 11:07:39;;;;;;;;;15.00;14.40;;;;;42.90;22.20;98440.28;6246816;27;97805;-71
2022/06/30 11:10:43;;;;;;;;;16.00;14.00;;;;;42.90;21.70;98435.41;6265474;27;97047;-72
2022/06/30 11:13:47;;;;;;;;;14.00;13.50;;;;;42.88;22.35;98437.09;6246553;27;97475;-71
2022/06/30 11:16:54;;;;;;;;;15.50;14.00;;;;;42.84;22.51;98436.41;6265529;27;96534;-71
2022/06/30 11:20:02;;;;;;;;;13.00;12.00;;;;;43.01;21.78;98433.03;6264812;27;96822;-72
2022/06/30 11:23:06;;;;;;;;;15.00;13.00;;;;;43.12;20.75;98441.25;6241940;27;98589;-71
2022/06/30 11:29:33;;;;;;;;;11.60;11.60;;;;;43.53;19.21;98426.25;6228989;27;98565;-70
2022/06/30 11:32:38;;;;;;;;;13.60;13.60;;;;;43.40;20.17;98431.88;6229258;27;99554;-70
2022/06/30 11:35:41;;;;;;;;;15.00;13.50;;;;;42.94;20.15;98429.63;6245726;27;98952;-71
2022/06/30 11:38:44;;;;;;;;;13.25;12.25;;;;;42.96;21.41;98422.25;6264517;27;97071;-71
2022/06/30 11:41:56;;;;;;;;;10.25;10.00;;;;;42.78;19.21;98419.13;6255563;27;97497;-71
2022/06/30 11:45:00;;;;;;;;;10.50;10.50;;;;;42.61;19.86;98411.91;6261622;27;96834;-71
2022/06/30 11:48:04;;;;;;;;;15.40;13.00;;;;;42.73;20.88;98406.31;6263547;27;96931;-71
2022/06/30 11:51:11;;;;;;;;;14.00;13.00;;;;;42.98;21.01;98414.09;6264122;27;97527;-72
2022/06/30 11:54:16;;;;;;;;;14.40;14.00;;;;;42.98;21.44;98408.41;6262908;27;97461;-71
2022/06/30 11:57:23;;;;;;;;;15.00;14.00;;;;;43.16;21.99;98408.69;6264145;27;97511;-71
2022/06/30 12:00:30;;;;;;;;;13.25;13.25;;;;;43.40;21.18;98400.66;6264808;27;96699;-72
2022/06/30 12:03:37;;;;;;;;;12.60;12.60;;;;;43.65;20.70;98394.19;6246159;27;100141;-71
2022/06/30 12:06:40;;;;;;;;;12.50;11.50;;;;;43.67;21.01;98388.06;6264229;27;97454;-71
2022/06/30 12:09:44;;;;;;;;;14.60;13.00;;;;;43.70;20.70;98384.31;6263778;27;97011;-71
2022/06/30 12:12:49;;;;;;;;;14.00;13.00;;;;;43.71;19.42;98386.69;6264131;27;96889;-71
2022/06/30 12:15:53;;;;;;;;;13.00;13.00;;;;;43.75;19.92;98384.53;6244129;27;96858;-71
2022/06/30 12:18:57;;;;;;;;;12.00;12.00;;;;;43.60;18.77;98377.72;6263640;27;97386;-70
2022/06/30 12:22:03;;;;;;;;;10.00;10.00;;;;;43.10;18.63;98370.00;6262526;27;97024;-72
2022/06/30 12:25:08;;;;;;;;;10.00;10.00;;;;;42.90;18.89;98361.66;6226433;27;98007;-72
2022/06/30 12:28:12;;;;;;;;;12.00;11.00;;;;;42.55;18.88;98357.81;6256150;27;99808;-72
2022/06/30 12:31:27;;;;;;;;;10.00;10.00;;;;;42.19;18.99;98346.66;6254312;27;96622;-72
2022/06/30 12:34:31;;;;;;;;;11.00;11.00;;;;;41.94;18.99;98347.31;6263897;27;97003;-72
2022/06/30 12:37:36;;;;;;;;;13.00;11.60;;;;;42.07;19.79;98350.22;6245152;27;96621;-72
2022/06/30 12:40:41;;;;;;;;;13.00;12.00;;;;;42.31;20.22;98350.81;6262840;27;97589;-72
2022/06/30 12:43:52;;;;;;;;;14.40;12.60;;;;;42.16;20.13;98349.59;6261682;27;97551;-71
2022/06/30 12:47:04;;;;;;;;;14.00;13.00;;;;;41.83;20.45;98338.31;6244519;27;96774;-71
2022/06/30 12:50:22;;;;;;;;;13.40;12.60;;;;;41.88;21.11;98343.44;6263095;27;96624;-71
2022/06/30 12:53:26;;;;;;;;;11.80;11.80;;;;;41.90;21.14;98346.63;6226830;27;97983;-71
2022/06/30 12:56:33;;;;;;;;;12.60;12.00;;;;;41.88;20.87;98337.00;6262173;27;97372;-71
2022/06/30 12:59:48;;;;;;;;;13.00;13.00;;;;;41.92;21.32;98341.31;6244649;27;96752;-71
2022/06/30 13:02:53;;;;;;;;;11.00;11.00;;;;;41.67;20.83;98324.16;6244730;27;97727;-71
2022/06/30 13:05:59;;;;;;;;;13.67;12.67;;;;;41.18;21.45;98328.19;6238201;27;97560;-71
2022/06/30 13:09:06;;;;;;;;;12.40;12.00;;;;;41.02;21.75;98326.88;6260783;27;97456;-72
2022/06/30 13:12:10;;;;;;;;;12.20;12.00;;;;;41.17;21.52;98315.28;6262450;27;97282;-70
2022/06/30 13:15:15;;;;;;;;;14.00;14.00;;;;;41.19;21.58;98307.16;6243101;27;96904;-72
2022/06/30 13:18:18;;;;;;;;;12.40;12.00;;;;;41.17;21.38;98316.06;6243545;27;97777;-72
2022/06/30 13:21:22;;;;;;;;;14.00;13.00;;;;;41.09;21.89;98270.22;6216833;27;99013;-72
2022/06/30 13:24:26;;;;;;;;;12.00;12.00;;;;;41.12;21.34;98307.31;6262880;27;97382;-71
2022/06/30 13:27:29;;;;;;;;;13.00;12.60;;;;;41.05;21.61;98294.91;6260803;27;97526;-70
2022/06/30 13:30:33;;;;;;;;;14.00;12.00;;;;;41.08;21.97;98296.09;6257365;27;98018;-72
2022/06/30 13:33:37;;;;;;;;;14.00;13.00;;;;;40.93;22.44;98301.25;6261473;27;97478;-71
2022/06/30 13:36:49;;;;;;;;;14.40;14.40;;;;;40.87;22.26;98305.03;6244239;27;97469;-71
2022/06/30 13:39:52;;;;;;;;;14.00;13.00;;;;;40.58;21.77;98311.28;6260054;27;97412;-72
2022/06/30 13:42:55;;;;;;;;;14.40;14.00;;;;;40.52;22.11;98318.66;6244452;27;96484;-72
2022/06/30 13:46:00;;;;;;;;;12.00;11.00;;;;;40.59;21.72;98320.56;6243920;27;99494;-71
2022/06/30 13:49:04;;;;;;;;;14.00;13.00;;;;;40.59;22.10;98321.34;6260003;27;97787;-71
2022/06/30 13:52:07;;;;;;;;;12.00;11.00;;;;;40.56;21.83;98319.41;6228446;27;98186;-71
2022/06/30 13:55:12;;;;;;;;;11.00;10.75;;;;;40.13;21.91;98313.78;6251139;27;97604;-72
2022/06/30 13:58:15;;;;;;;;;12.00;11.00;;;;;40.12;22.37;98326.31;6249859;27;97370;-71
2022/06/30 14:01:20;;;;;;;;;15.00;13.60;;;;;40.13;22.01;98313.78;6236785;27;96764;-71
2022/06/30 14:04:23;;;;;;;;;12.00;11.00;;;;;40.10;21.29;98306.19;6260107;27;97280;-71
2022/06/30 14:07:28;;;;;;;;;11.80;11.80;;;;;40.00;21.54;98310.00;6240307;27;98468;-71
2022/06/30 14:10:32;;;;;;;;;13.40;12.40;;;;;39.95;22.18;98304.06;6235267;27;96914;-72
2022/06/30 14:13:35;;;;;;;;;11.00;11.00;;;;;39.90;22.05;98304.56;6258875;27;96606;-71
2022/06/30 14:16:57;;;;;;;;;12.20;11.20;;;;;39.75;22.61;98299.19;6231159;27;96509;-71
2022/06/30 14:20:01;;;;;;;;;12.00;11.40;;;;;39.57;22.91;98306.34;6220236;27;97621;-71
2022/06/30 14:23:04;;;;;;;;;11.20;11.00;;;;;39.20;23.36;98313.75;6225498;27;97509;-71
2022/06/30 14:26:07;;;;;;;;;12.00;12.00;;;;;39.09;23.50;98309.50;6259772;27;96658;-72
2022/06/30 14:29:12;;;;;;;;;13.00;13.00;;;;;38.91;23.70;98310.56;6259371;27;97522;-70
2022/06/30 14:32:18;;;;;;;;;15.00;13.00;;;;;38.92;23.85;98312.16;6261304;27;97507;-71